Time;durP1;ratioP1;P1;durP2;ratioP2;P2;SDS_P1;SDS_P2;PMS_P1;PMS_P2;Temp;Humidity;BMP_temperature;BMP_pressure;BME280_temperature;BME280_humidity;BME280_pressure;Samples;Min_cycle;Max_cycle;Signal;HPM_P1;HPM_P2
2021/06/29 00:01:05;;;;;;;3.25;0.93;;;;;;;;;;5075368;28;20024;-50
2021/06/29 00:03:31;;;;;;;0.80;0.80;;;;;;;;;;5075964;28;20032;-50
2021/06/29 00:05:57;;;;;;;8.70;1.27;;;;;;;;;;5075737;28;20025;-50
2021/06/29 00:08:23;;;;;;;3.20;1.33;;;;;;;;;;5075749;28;20024;-51
2021/06/29 00:10:49;;;;;;;13.43;1.52;;;;;;;;;;5075314;28;20029;-51
2021/06/29 00:13:15;;;;;;;2.63;0.95;;;;;;;;;;5076260;28;20020;-51
2021/06/29 00:15:42;;;;;;;11.85;1.92;;;;;;;;;;5076265;28;20082;-50
2021/06/29 00:18:08;;;;;;;1.10;1.00;;;;;;;;;;5075862;28;20031;-50
2021/06/29 00:20:34;;;;;;;1.15;0.90;;;;;;;;;;5074609;28;20451;-51
2021/06/29 00:23:00;;;;;;;0.95;0.85;;;;;;;;;;5074951;28;20390;-50
2021/06/29 00:25:26;;;;;;;0.90;0.90;;;;;;;;;;5075545;28;20082;-51
2021/06/29 00:27:52;;;;;;;2.00;0.85;;;;;;;;;;5075688;28;20127;-51
2021/06/29 00:30:19;;;;;;;2.50;1.08;;;;;;;;;;5075173;28;20044;-50
2021/06/29 00:32:45;;;;;;;0.85;0.85;;;;;;;;;;5075731;28;20061;-50
2021/06/29 00:35:11;;;;;;;4.85;0.95;;;;;;;;;;5075344;28;20339;-50
2021/06/29 00:37:38;;;;;;;0.93;0.93;;;;;;;;;;5075369;28;20032;-50
2021/06/29 00:40:05;;;;;;;2.78;1.30;;;;;;;;;;5074852;28;20033;-50
2021/06/29 00:42:31;;;;;;;3.75;1.20;;;;;;;;;;5075316;28;20077;-50
2021/06/29 00:44:57;;;;;;;2.67;1.25;;;;;;;;;;5075520;28;20074;-50
2021/06/29 00:47:23;;;;;;;12.57;1.63;;;;;;;;;;5075228;28;20028;-50
2021/06/29 00:49:49;;;;;;;7.45;1.30;;;;;;;;;;5075054;28;20024;-50
2021/06/29 00:52:16;;;;;;;7.60;1.52;;;;;;;;;;5074170;28;20035;-50
2021/06/29 00:54:42;;;;;;;3.47;1.13;;;;;;;;;;5075436;28;20024;-51
2021/06/29 00:57:09;;;;;;;7.85;1.52;;;;;;;;;;5075293;28;20077;-50
2021/06/29 00:59:35;;;;;;;6.38;1.33;;;;;;;;;;5075078;28;20108;-50
2021/06/29 01:02:01;;;;;;;17.27;1.90;;;;;;;;;;5074181;28;20048;-50
2021/06/29 01:04:27;;;;;;;10.48;1.67;;;;;;;;;;5073613;28;20056;-50
2021/06/29 01:06:54;;;;;;;7.72;1.20;;;;;;;;;;5074033;28;20020;-50
2021/06/29 01:09:21;;;;;;;20.33;1.95;;;;;;;;;;5075155;28;20027;-50
2021/06/29 01:11:47;;;;;;;39.45;2.97;;;;;;;;;;5074011;28;20111;-51
2021/06/29 01:14:14;;;;;;;2.08;1.20;;;;;;;;;;5075193;28;20032;-50
2021/06/29 01:16:40;;;;;;;17.40;1.85;;;;;;;;;;5074658;28;20029;-50
2021/06/29 01:19:06;;;;;;;24.75;2.15;;;;;;;;;;5074457;28;20043;-50
2021/06/29 01:21:41;;;;;;;1.50;1.33;;;;;;;;;;5073423;28;20036;-50
2021/06/29 01:24:14;;;;;;;1.95;1.17;;;;;;;;;;5074491;28;20520;-50
2021/06/29 01:26:49;;;;;;;1.13;1.13;;;;;;;;;;5074709;28;20043;-50
2021/06/29 01:29:18;;;;;;;8.60;1.45;;;;;;;;;;5074202;28;20078;-50
2021/06/29 01:31:44;;;;;;;2.80;1.35;;;;;;;;;;5073652;28;20389;-50
2021/06/29 01:34:10;;;;;;;1.77;1.33;;;;;;;;;;5074709;28;20025;-50
2021/06/29 01:36:38;;;;;;;2.30;1.75;;;;;;;;;;5074406;28;20154;-50
2021/06/29 01:39:09;;;;;;;3.25;1.58;;;;;;;;;;5074023;28;20039;-51
2021/06/29 01:41:35;;;;;;;1.65;1.55;;;;;;;;;;5071976;28;20041;-50
2021/06/29 01:44:09;;;;;;;3.38;1.83;;;;;;;;;;5073875;28;20360;-50
2021/06/29 01:46:38;;;;;;;1.85;1.48;;;;;;;;;;5074537;28;20032;-50
2021/06/29 01:49:05;;;;;;;2.40;1.42;;;;;;;;;;5074320;28;20085;-51
2021/06/29 01:51:31;;;;;;;6.97;1.95;;;;;;;;;;5073771;28;20134;-50
2021/06/29 01:53:57;;;;;;;2.30;1.52;;;;;;;;;;5073418;28;20036;-50
2021/06/29 01:56:28;;;;;;;6.30;2.05;;;;;;;;;;5073961;28;20044;-50
2021/06/29 01:58:58;;;;;;;2.10;1.67;;;;;;;;;;5073870;28;20031;-50
2021/06/29 02:01:24;;;;;;;4.13;2.10;;;;;;;;;;5072584;28;20123;-50
2021/06/29 02:03:50;;;;;;;2.28;1.67;;;;;;;;;;5073956;28;20033;-51
2021/06/29 02:06:17;;;;;;;8.52;2.17;;;;;;;;;;5073907;28;20063;-51
2021/06/29 02:08:43;;;;;;;2.83;1.73;;;;;;;;;;5073683;28;20028;-50
2021/06/29 02:11:10;;;;;;;5.88;2.17;;;;;;;;;;5072891;28;20031;-50
2021/06/29 02:13:36;;;;;;;4.03;1.60;;;;;;;;;;5072983;28;20430;-51
2021/06/29 02:16:02;;;;;;;5.25;1.83;;;;;;;;;;5073623;28;20476;-50
2021/06/29 02:18:28;;;;;;;2.03;1.83;;;;;;;;;;5072923;28;20022;-50
2021/06/29 02:20:54;;;;;;;4.10;1.98;;;;;;;;;;5072331;28;20460;-50
2021/06/29 02:23:20;;;;;;;6.28;2.08;;;;;;;;;;5073096;28;20024;-50
2021/06/29 02:25:46;;;;;;;5.38;2.08;;;;;;;;;;5073705;28;20025;-50
2021/06/29 02:28:13;;;;;;;2.05;1.73;;;;;;;;;;5073023;28;20028;-50
2021/06/29 02:30:40;;;;;;;5.13;2.15;;;;;;;;;;5072936;28;20183;-50
2021/06/29 02:33:06;;;;;;;4.45;2.40;;;;;;;;;;5073003;28;20031;-51
2021/06/29 02:35:32;;;;;;;2.58;1.88;;;;;;;;;;5073193;28;20036;-50
2021/06/29 02:37:58;;;;;;;5.60;2.17;;;;;;;;;;5072961;28;20023;-50
2021/06/29 02:40:25;;;;;;;1.73;1.63;;;;;;;;;;5064782;28;20129;-50
2021/06/29 02:42:51;;;;;;;2.47;1.85;;;;;;;;;;5072989;28;20355;-50
2021/06/29 02:45:19;;;;;;;2.17;1.70;;;;;;;;;;5072708;28;20111;-50
2021/06/29 02:47:45;;;;;;;4.30;1.70;;;;;;;;;;5073087;28;20078;-50
2021/06/29 02:50:12;;;;;;;70.50;3.15;;;;;;;;;;5072240;28;20115;-50
2021/06/29 02:52:38;;;;;;;3.55;2.40;;;;;;;;;;5073435;28;20028;-50
2021/06/29 02:55:06;;;;;;;3.63;1.90;;;;;;;;;;5072648;28;20016;-50
2021/06/29 02:57:32;;;;;;;3.25;2.33;;;;;;;;;;5073126;28;20028;-51
2021/06/29 02:59:58;;;;;;;9.18;2.55;;;;;;;;;;5072268;28;20029;-50
2021/06/29 03:02:24;;;;;;;7.53;2.15;;;;;;;;;;5072259;28;20025;-50
2021/06/29 03:04:51;;;;;;;4.78;2.20;;;;;;;;;;5072808;28;20466;-50
2021/06/29 03:07:17;;;;;;;5.00;2.45;;;;;;;;;;5073112;28;20104;-50
2021/06/29 03:09:43;;;;;;;2.10;1.80;;;;;;;;;;5072521;28;20595;-50
2021/06/29 03:12:09;;;;;;;6.63;1.92;;;;;;;;;;5072342;28;20048;-50
2021/06/29 03:14:36;;;;;;;2.20;2.00;;;;;;;;;;5072115;28;20039;-50
2021/06/29 03:17:03;;;;;;;22.85;2.85;;;;;;;;;;5072752;28;20025;-51
2021/06/29 03:19:31;;;;;;;4.63;2.10;;;;;;;;;;5072496;28;20170;-50
2021/06/29 03:21:57;;;;;;;9.77;2.97;;;;;;;;;;5071812;28;20028;-51
2021/06/29 03:24:23;;;;;;;9.20;2.88;;;;;;;;;;5072842;28;20035;-50
2021/06/29 03:26:49;;;;;;;11.65;2.85;;;;;;;;;;5072141;28;20112;-50
2021/06/29 03:29:15;;;;;;;4.40;2.63;;;;;;;;;;5074662;28;20048;-50
2021/06/29 03:31:41;;;;;;;3.38;2.13;;;;;;;;;;5076123;28;20052;-50
2021/06/29 03:34:07;;;;;;;71.85;5.43;;;;;;;;;;5076384;28;20025;-50
2021/06/29 03:36:33;;;;;;;4.82;2.00;;;;;;;;;;5076480;28;20033;-50
2021/06/29 03:38:59;;;;;;;8.80;2.25;;;;;;;;;;5076651;28;20046;-50
2021/06/29 03:41:25;;;;;;;74.68;4.80;;;;;;;;;;5075164;28;20487;-51
2021/06/29 03:43:51;;;;;;;12.13;2.58;;;;;;;;;;5076535;28;20032;-50
2021/06/29 03:46:17;;;;;;;23.70;2.05;;;;;;;;;;5076490;28;20345;-51
2021/06/29 03:48:43;;;;;;;41.00;3.33;;;;;;;;;;5075944;28;20086;-51
2021/06/29 03:51:09;;;;;;;51.22;3.63;;;;;;;;;;5075492;28;20028;-50
2021/06/29 03:53:35;;;;;;;2.47;1.83;;;;;;;;;;5076006;28;20090;-50
2021/06/29 03:56:01;;;;;;;102.78;6.78;;;;;;;;;;5075023;28;20028;-51
2021/06/29 03:58:28;;;;;;;32.83;2.97;;;;;;;;;;5065287;28;20021;-50
2021/06/29 04:00:54;;;;;;;10.38;2.35;;;;;;;;;;5069668;28;20348;-50
2021/06/29 04:03:20;;;;;;;3.25;1.90;;;;;;;;;;5076254;28;20439;-50
2021/06/29 04:05:46;;;;;;;2.58;1.70;;;;;;;;;;5075992;28;20504;-50
2021/06/29 04:08:12;;;;;;;17.02;2.65;;;;;;;;;;5076040;28;20111;-51
2021/06/29 04:10:38;;;;;;;2.70;1.85;;;;;;;;;;5074510;28;20024;-50
2021/06/29 04:13:04;;;;;;;11.68;2.22;;;;;;;;;;5076276;28;20020;-50
2021/06/29 04:15:30;;;;;;;6.18;2.10;;;;;;;;;;5076008;28;20421;-50
2021/06/29 04:17:56;;;;;;;5.57;2.05;;;;;;;;;;5075564;28;20021;-50
2021/06/29 04:20:22;;;;;;;6.88;1.77;;;;;;;;;;5069003;28;20423;-50
2021/06/29 04:22:48;;;;;;;4.22;1.70;;;;;;;;;;5070689;28;20082;-50
2021/06/29 04:25:15;;;;;;;4.57;2.10;;;;;;;;;;5057682;28;20029;-50
2021/06/29 04:27:41;;;;;;;3.08;1.73;;;;;;;;;;5055969;28;20074;-50
2021/06/29 04:30:07;;;;;;;6.13;1.95;;;;;;;;;;5069180;28;20021;-50
2021/06/29 04:32:33;;;;;;;8.10;2.78;;;;;;;;;;5075534;28;20024;-51
2021/06/29 04:34:59;;;;;;;2.95;1.58;;;;;;;;;;5075631;28;20325;-51
2021/06/29 04:37:25;;;;;;;15.25;1.80;;;;;;;;;;5060442;28;20280;-50
2021/06/29 04:39:51;;;;;;;10.80;1.30;;;;;;;;;;5070406;28;20120;-50
2021/06/29 04:42:17;;;;;;;9.05;1.40;;;;;;;;;;5070143;28;20112;-50
2021/06/29 04:44:43;;;;;;;15.27;1.90;;;;;;;;;;5074385;28;20037;-50
2021/06/29 04:47:10;;;;;;;3.55;1.48;;;;;;;;;;5074405;28;20426;-50
2021/06/29 04:49:37;;;;;;;1.38;1.17;;;;;;;;;;5069699;28;20085;-50
2021/06/29 04:52:03;;;;;;;12.30;1.58;;;;;;;;;;5074600;28;20086;-50
2021/06/29 04:54:29;;;;;;;3.63;1.45;;;;;;;;;;5074204;28;20403;-50
2021/06/29 04:56:55;;;;;;;1.45;1.10;;;;;;;;;;5074969;28;20343;-50
2021/06/29 04:59:21;;;;;;;0.93;0.93;;;;;;;;;;5070284;28;20454;-50
2021/06/29 05:01:47;;;;;;;28.08;2.88;;;;;;;;;;5073959;28;20035;-50
2021/06/29 05:04:14;;;;;;;11.05;1.58;;;;;;;;;;5074953;28;20025;-50
2021/06/29 05:06:40;;;;;;;5.30;1.40;;;;;;;;;;5074733;28;20032;-50
2021/06/29 05:09:06;;;;;;;6.57;1.90;;;;;;;;;;5061082;28;20029;-50
2021/06/29 05:11:32;;;;;;;12.48;1.75;;;;;;;;;;5053573;28;20040;-50
2021/06/29 05:13:58;;;;;;;16.88;1.98;;;;;;;;;;5054965;28;20036;-50
2021/06/29 05:16:24;;;;;;;4.80;1.70;;;;;;;;;;5064820;28;20028;-49
2021/06/29 05:18:50;;;;;;;10.90;1.45;;;;;;;;;;5062793;28;20078;-50
2021/06/29 05:21:16;;;;;;;2.75;1.20;;;;;;;;;;5053237;28;20106;-49
2021/06/29 05:23:42;;;;;;;1.80;1.25;;;;;;;;;;5053265;28;20467;-50
2021/06/29 05:26:08;;;;;;;1.75;1.30;;;;;;;;;;5054194;28;20029;-50
2021/06/29 05:28:33;;;;;;;1.85;1.38;;;;;;;;;;5053901;28;20355;-50
2021/06/29 05:30:59;;;;;;;1.08;0.98;;;;;;;;;;5052799;28;20025;-50
2021/06/29 05:33:25;;;;;;;1.75;1.10;;;;;;;;;;5053738;28;20036;-50
2021/06/29 05:35:52;;;;;;;1.20;1.10;;;;;;;;;;5054159;28;20021;-50
2021/06/29 05:38:18;;;;;;;3.88;0.98;;;;;;;;;;5054165;28;20048;-50
2021/06/29 05:40:44;;;;;;;2.33;0.93;;;;;;;;;;5053202;28;20036;-50
2021/06/29 05:43:10;;;;;;;2.75;1.10;;;;;;;;;;5054303;28;20028;-50
2021/06/29 05:45:36;;;;;;;1.92;1.20;;;;;;;;;;5054606;28;20037;-50
2021/06/29 05:48:02;;;;;;;3.78;1.20;;;;;;;;;;5053896;28;20067;-50
2021/06/29 05:50:28;;;;;;;11.43;1.70;;;;;;;;;;5053233;28;20440;-50
2021/06/29 05:52:54;;;;;;;5.10;1.33;;;;;;;;;;5052856;28;20467;-50
2021/06/29 05:55:20;;;;;;;5.32;1.83;;;;;;;;;;5053678;28;20029;-50
2021/06/29 05:57:46;;;;;;;2.15;1.52;;;;;;;;;;5054108;28;20104;-50
2021/06/29 06:00:14;;;;;;;4.65;1.60;;;;;;;;;;5060238;28;20400;-50
2021/06/29 06:02:40;;;;;;;2.10;1.40;;;;;;;;;;5073961;28;20087;-50
2021/06/29 06:05:07;;;;;;;2.75;1.83;;;;;;;;;;5073822;28;20466;-49
2021/06/29 06:07:33;;;;;;;4.13;1.80;;;;;;;;;;5071029;28;20032;-49
2021/06/29 06:09:59;;;;;;;7.50;1.77;;;;;;;;;;5052846;28;20055;-49
2021/06/29 06:12:26;;;;;;;5.80;1.58;;;;;;;;;;5052234;28;20028;-49
2021/06/29 06:14:52;;;;;;;6.45;1.60;;;;;;;;;;5052448;28;20375;-49
2021/06/29 06:17:18;;;;;;;2.78;1.45;;;;;;;;;;5053188;28;20021;-50
2021/06/29 06:19:44;;;;;;;3.88;1.75;;;;;;;;;;5053054;28;20475;-49
2021/06/29 06:22:10;;;;;;;13.07;2.10;;;;;;;;;;5052897;28;20033;-50
2021/06/29 06:24:36;;;;;;;2.85;1.60;;;;;;;;;;5053139;28;20406;-49
2021/06/29 06:27:02;;;;;;;6.13;1.77;;;;;;;;;;5053206;28;20112;-49
2021/06/29 06:29:28;;;;;;;7.20;1.40;;;;;;;;;;5053198;28;20028;-49
2021/06/29 06:31:54;;;;;;;8.80;1.85;;;;;;;;;;5052237;28;20048;-49
2021/06/29 06:34:20;;;;;;;13.32;5.05;;;;;;;;;;5063061;28;20052;-50
2021/06/29 06:36:47;;;;;;;21.77;4.90;;;;;;;;;;5071548;28;20016;-49
2021/06/29 06:42:17;;;;;;;16.23;2.70;;;;;;;;;;5027969;28;20089;-50
2021/06/29 06:44:43;;;;;;;5.55;2.30;;;;;;;;;;5067338;28;20315;-50
2021/06/29 06:47:09;;;;;;;12.10;2.45;;;;;;;;;;5072745;28;20040;-50
2021/06/29 06:49:35;;;;;;;21.10;3.38;;;;;;;;;;5072707;28;20028;-50
2021/06/29 06:52:01;;;;;;;12.90;3.08;;;;;;;;;;5072088;28;20104;-50
2021/06/29 06:54:27;;;;;;;26.50;4.43;;;;;;;;;;5072939;28;20020;-50
2021/06/29 06:56:53;;;;;;;5.10;2.38;;;;;;;;;;5069749;28;20119;-50
2021/06/29 06:59:19;;;;;;;58.05;6.05;;;;;;;;;;5072443;28;20047;-50
2021/06/29 07:01:46;;;;;;;22.33;3.80;;;;;;;;;;5072262;28;20032;-50
2021/06/29 07:04:12;;;;;;;14.00;2.90;;;;;;;;;;5070237;28;20082;-50
2021/06/29 07:06:38;;;;;;;11.80;3.45;;;;;;;;;;5073113;28;20024;-51
2021/06/29 07:09:05;;;;;;;7.68;2.75;;;;;;;;;;5072726;28;20027;-51
2021/06/29 07:11:31;;;;;;;14.90;2.60;;;;;;;;;;5071770;28;20028;-51
2021/06/29 07:13:57;;;;;;;24.83;2.92;;;;;;;;;;5072229;28;20069;-51
2021/06/29 07:16:23;;;;;;;21.02;3.10;;;;;;;;;;5072468;28;20032;-51
2021/06/29 07:18:49;;;;;;;33.47;2.88;;;;;;;;;;5072197;28;20448;-52
2021/06/29 07:21:15;;;;;;;32.53;2.38;;;;;;;;;;5071755;28;20037;-51
2021/06/29 07:23:41;;;;;;;5.90;1.60;;;;;;;;;;5072346;28;20032;-51
2021/06/29 07:26:07;;;;;;;2.58;1.80;;;;;;;;;;5072805;28;20024;-51
2021/06/29 07:28:33;;;;;;;17.13;2.40;;;;;;;;;;5072066;28;20090;-51
2021/06/29 07:30:59;;;;;;;4.32;1.80;;;;;;;;;;5071591;28;20031;-51
2021/06/29 07:33:25;;;;;;;8.20;1.63;;;;;;;;;;5072352;28;20459;-51
2021/06/29 07:35:51;;;;;;;14.65;1.88;;;;;;;;;;5072100;28;20124;-52
2021/06/29 07:38:17;;;;;;;8.20;1.67;;;;;;;;;;5072772;28;20031;-51
2021/06/29 07:40:44;;;;;;;13.15;2.10;;;;;;;;;;5071712;28;20032;-51
2021/06/29 07:43:10;;;;;;;3.00;1.65;;;;;;;;;;5072421;28;20029;-51
2021/06/29 07:45:36;;;;;;;5.80;1.40;;;;;;;;;;5072390;28;20078;-51
2021/06/29 07:48:02;;;;;;;8.57;2.05;;;;;;;;;;5071828;28;20029;-52
2021/06/29 07:50:29;;;;;;;4.70;1.40;;;;;;;;;;5072342;28;20372;-52
2021/06/29 07:52:55;;;;;;;7.15;1.75;;;;;;;;;;5071872;28;20047;-51
2021/06/29 07:55:21;;;;;;;18.67;1.98;;;;;;;;;;5072349;28;20359;-52
2021/06/29 07:57:47;;;;;;;23.10;2.40;;;;;;;;;;5071343;28;20447;-51
2021/06/29 08:00:13;;;;;;;56.45;6.05;;;;;;;;;;5071218;28;20029;-51
2021/06/29 08:02:40;;;;;;;115.78;8.30;;;;;;;;;;5072039;28;20048;-51
2021/06/29 08:05:06;;;;;;;76.85;4.97;;;;;;;;;;5072290;28;20021;-52
2021/06/29 08:07:32;;;;;;;109.88;6.45;;;;;;;;;;5072088;28;20060;-52
2021/06/29 08:09:58;;;;;;;16.73;2.40;;;;;;;;;;5069031;28;20095;-52
2021/06/29 08:12:24;;;;;;;19.13;2.15;;;;;;;;;;5068737;28;20360;-51
2021/06/29 08:14:50;;;;;;;10.68;1.73;;;;;;;;;;5066897;28;20021;-52
2021/06/29 08:17:16;;;;;;;11.40;2.47;;;;;;;;;;5055343;28;20363;-51
2021/06/29 08:19:43;;;;;;;12.30;2.33;;;;;;;;;;5054396;28;20032;-51
2021/06/29 08:22:09;;;;;;;40.95;3.67;;;;;;;;;;5054574;28;20029;-52
2021/06/29 08:24:35;;;;;;;28.75;2.90;;;;;;;;;;5055712;28;20025;-52
2021/06/29 08:27:01;;;;;;;42.92;3.83;;;;;;;;;;5055854;28;20104;-51
2021/06/29 08:29:27;;;;;;;84.32;5.50;;;;;;;;;;5055502;28;20017;-51
2021/06/29 08:31:53;;;;;;;68.15;4.50;;;;;;;;;;5054816;28;20484;-51
2021/06/29 08:34:19;;;;;;;42.88;4.13;;;;;;;;;;5055589;28;20025;-51
2021/06/29 08:36:45;;;;;;;75.53;6.75;;;;;;;;;;5055458;28;20024;-51
2021/06/29 08:39:13;;;;;;;4.28;1.17;;;;;;;;;;5055773;28;20083;-51
2021/06/29 08:41:40;;;;;;;56.90;5.47;;;;;;;;;;5054580;28;20461;-51
2021/06/29 08:44:06;;;;;;;72.50;6.45;;;;;;;;;;5054770;28;20491;-51
2021/06/29 08:46:33;;;;;;;51.72;3.63;;;;;;;;;;5055392;28;20025;-51
2021/06/29 08:48:59;;;;;;;82.03;5.47;;;;;;;;;;5056004;28;20022;-51
2021/06/29 08:51:25;;;;;;;107.35;6.22;;;;;;;;;;5069251;28;20077;-51
2021/06/29 08:53:51;;;;;;;43.47;3.58;;;;;;;;;;5075232;28;20107;-52
2021/06/29 08:56:17;;;;;;;323.30;14.98;;;;;;;;;;5075098;28;20035;-52
2021/06/29 08:58:44;;;;;;;31.83;3.38;;;;;;;;;;5074416;28;20028;-52
2021/06/29 09:01:12;;;;;;;10.65;2.15;;;;;;;;;;5074731;28;20124;-51
2021/06/29 09:03:38;;;;;;;93.57;7.03;;;;;;;;;;5075237;28;20021;-51
2021/06/29 09:06:05;;;;;;;35.80;2.67;;;;;;;;;;5074868;28;20360;-51
2021/06/29 09:08:37;;;;;;;60.53;3.97;;;;;;;;;;5075027;28;20013;-52
2021/06/29 09:11:05;;;;;;;82.82;5.32;;;;;;;;;;5074239;28;20099;-52
2021/06/29 09:13:31;;;;;;;12.13;1.77;;;;;;;;;;5074975;28;20031;-51
2021/06/29 09:15:57;;;;;;;26.63;2.45;;;;;;;;;;5073076;28;20017;-52
2021/06/29 09:18:27;;;;;;;18.15;2.95;;;;;;;;;;5074662;28;20072;-52
2021/06/29 09:20:57;;;;;;;2.90;1.55;;;;;;;;;;5073449;28;20044;-51
2021/06/29 09:23:23;;;;;;;;;;;;;;;;;;5075145;28;20040;-51
2021/06/29 09:25:53;;;;;;;36.53;3.05;;;;;;;;;;5073804;28;19905;-51
2021/06/29 09:28:21;;;;;;;120.53;8.82;;;;;;;;;;5074638;28;20028;-52
2021/06/29 09:30:48;;;;;;;38.72;2.83;;;;;;;;;;5073586;28;20119;-51
2021/06/29 09:33:19;;;;;;;27.10;2.85;;;;;;;;;;5074693;28;20020;-51
2021/06/29 09:35:48;;;;;;;4.05;1.67;;;;;;;;;;5068592;28;20021;-51
2021/06/29 09:38:20;;;;;;;19.63;2.50;;;;;;;;;;5054296;28;20029;-51
2021/06/29 09:40:47;;;;;;;10.80;1.98;;;;;;;;;;5052538;28;20476;-52
2021/06/29 09:43:17;;;;;;;27.58;3.38;;;;;;;;;;5053835;28;20029;-52
2021/06/29 09:45:45;;;;;;;3.75;1.63;;;;;;;;;;5054229;28;20063;-51
2021/06/29 09:48:12;;;;;;;7.20;2.10;;;;;;;;;;5054152;28;20021;-51
2021/06/29 09:50:40;;;;;;;17.70;3.88;;;;;;;;;;5067336;28;20029;-51
2021/06/29 09:53:13;;;;;;;2.65;1.73;;;;;;;;;;5073822;28;20482;-51
2021/06/29 09:55:41;;;;;;;3.80;1.83;;;;;;;;;;5074084;28;20103;-51
2021/06/29 09:58:08;;;;;;;5.28;1.65;;;;;;;;;;5073666;28;20331;-51
2021/06/29 10:00:41;;;;;;;3.25;1.48;;;;;;;;;;5072960;28;20037;-51
2021/06/29 10:03:18;;;;;;;7.55;2.58;;;;;;;;;;5073631;28;20043;-51
2021/06/29 10:05:44;;;;;;;4.55;1.30;;;;;;;;;;5073571;28;20024;-51
2021/06/29 10:08:11;;;;;;;13.10;2.42;;;;;;;;;;5074060;28;20031;-51
2021/06/29 10:10:37;;;;;;;2.42;1.60;;;;;;;;;;5073198;28;20404;-52
2021/06/29 10:13:16;;;;;;;17.23;2.67;;;;;;;;;;5073636;28;20347;-51
2021/06/29 10:15:42;;;;;;;7.90;2.27;;;;;;;;;;5073078;28;20413;-51
2021/06/29 10:18:09;;;;;;;18.65;2.30;;;;;;;;;;5073854;28;20287;-51
2021/06/29 10:23:34;;;;;;;2.15;1.15;;;;;;;;;;5038984;28;20033;-52
2021/06/29 10:26:00;;;;;;;1.13;1.02;;;;;;;;;;5073498;28;20111;-51
2021/06/29 10:28:26;;;;;;;1.73;1.23;;;;;;;;;;5073558;28;20064;-51
2021/06/29 10:30:53;;;;;;;6.10;1.40;;;;;;;;;;5072186;28;20477;-51
2021/06/29 10:33:19;;;;;;;3.28;1.50;;;;;;;;;;5073641;28;20024;-51
2021/06/29 10:35:45;;;;;;;2.05;1.85;;;;;;;;;;5073340;28;20020;-51
2021/06/29 10:38:11;;;;;;;2.47;1.88;;;;;;;;;;5072827;28;20025;-51
2021/06/29 10:40:38;;;;;;;2.38;1.45;;;;;;;;;;5072484;28;20040;-51
2021/06/29 10:43:04;;;;;;;8.32;4.15;;;;;;;;;;5072657;28;20029;-51
2021/06/29 10:45:34;;;;;;;4.75;1.40;;;;;;;;;;5073321;28;20077;-51
2021/06/29 10:48:16;;;;;;;13.48;1.88;;;;;;;;;;5072702;28;20021;-51
2021/06/29 10:50:42;;;;;;;15.20;1.95;;;;;;;;;;5072339;28;20032;-52
2021/06/29 10:53:27;;;;;;;1.98;1.17;;;;;;;;;;5072629;28;20012;-51
2021/06/29 10:55:53;;;;;;;1.52;1.20;;;;;;;;;;5072702;28;20356;-51
2021/06/29 10:58:34;;;;;;;4.35;1.30;;;;;;;;;;5073083;28;20031;-51
2021/06/29 11:01:20;;;;;;;4.45;1.40;;;;;;;;;;5072054;28;20032;-51
2021/06/29 11:03:46;;;;;;;61.00;3.13;;;;;;;;;;5072591;28;20025;-51
2021/06/29 11:06:12;;;;;;;19.08;2.03;;;;;;;;;;5073020;28;20021;-51
2021/06/29 11:08:59;;;;;;;8.95;1.77;;;;;;;;;;5073208;28;20102;-52
2021/06/29 11:11:25;;;;;;;9.95;1.45;;;;;;;;;;5071737;28;20099;-51
2021/06/29 11:13:51;;;;;;;2.75;1.70;;;;;;;;;;5071108;28;20024;-52
2021/06/29 11:16:18;;;;;;;1.98;1.38;;;;;;;;;;5072160;28;20024;-52
2021/06/29 11:18:47;;;;;;;14.95;1.60;;;;;;;;;;5072631;28;20036;-51
2021/06/29 11:21:35;;;;;;;2.80;2.00;;;;;;;;;;5071618;28;20056;-51
2021/06/29 11:24:21;;;;;;;9.20;1.73;;;;;;;;;;5072414;28;20028;-51
2021/06/29 11:26:47;;;;;;;15.32;2.13;;;;;;;;;;5072120;28;20036;-51
2021/06/29 11:29:13;;;;;;;8.32;2.10;;;;;;;;;;5072701;28;20020;-52
2021/06/29 11:31:40;;;;;;;26.27;2.92;;;;;;;;;;5071766;28;20115;-51
2021/06/29 11:34:07;;;;;;;26.50;2.58;;;;;;;;;;5072466;28;20031;-51
2021/06/29 11:36:35;;;;;;;7.32;1.75;;;;;;;;;;5072441;28;20098;-51
2021/06/29 11:39:13;;;;;;;119.45;4.80;;;;;;;;;;5072268;28;20029;-51
2021/06/29 11:41:40;;;;;;;76.18;3.70;;;;;;;;;;5071731;28;20041;-51
2021/06/29 11:44:06;;;;;;;21.20;2.35;;;;;;;;;;5072165;28;20055;-51
2021/06/29 11:46:51;;;;;;;1.98;1.50;;;;;;;;;;5072620;28;20029;-51
2021/06/29 11:49:25;;;;;;;1.77;1.42;;;;;;;;;;5072308;28;20027;-51
2021/06/29 11:51:51;;;;;;;5.35;1.77;;;;;;;;;;5075699;28;20210;-51
2021/06/29 11:54:27;;;;;;;3.42;1.65;;;;;;;;;;5076319;28;20020;-51
2021/06/29 11:56:54;;;;;;;40.45;5.32;;;;;;;;;;5076412;28;20027;-51
2021/06/29 11:59:29;;;;;;;1.73;1.48;;;;;;;;;;5076495;28;20020;-51
2021/06/29 12:02:00;;;;;;;5.53;2.10;;;;;;;;;;5075339;28;20082;-51
2021/06/29 12:04:26;;;;;;;15.50;2.83;;;;;;;;;;5075774;28;20109;-51
2021/06/29 12:07:08;;;;;;;8.80;1.50;;;;;;;;;;5075844;28;20453;-51
2021/06/29 12:09:36;;;;;;;22.60;4.10;;;;;;;;;;5076297;28;20036;-52
2021/06/29 12:12:23;;;;;;;1.88;1.52;;;;;;;;;;5075183;28;20037;-51
2021/06/29 12:14:59;;;;;;;4.57;2.28;;;;;;;;;;5075747;28;20032;-52
2021/06/29 12:17:25;;;;;;;10.55;3.42;;;;;;;;;;5075883;28;20032;-51
2021/06/29 12:20:04;;;;;;;28.23;3.50;;;;;;;;;;5075342;28;20463;-51
2021/06/29 12:22:31;;;;;;;14.18;2.55;;;;;;;;;;5073675;28;20027;-51
2021/06/29 12:24:57;;;;;;;6.20;1.50;;;;;;;;;;5075494;28;20070;-51
2021/06/29 12:27:24;;;;;;;23.83;2.28;;;;;;;;;;5075970;28;20040;-51
2021/06/29 12:29:50;;;;;;;46.15;3.55;;;;;;;;;;5075610;28;20036;-51
2021/06/29 12:32:17;;;;;;;4.93;1.48;;;;;;;;;;5074710;28;20082;-51
2021/06/29 12:34:43;;;;;;;5.50;1.50;;;;;;;;;;5075309;28;20694;-51
2021/06/29 12:37:09;;;;;;;5.10;1.77;;;;;;;;;;5075719;28;20027;-52
2021/06/29 12:39:36;;;;;;;17.80;1.80;;;;;;;;;;5075151;28;20025;-52
2021/06/29 12:42:07;;;;;;;29.20;3.00;;;;;;;;;;5074871;28;20045;-52
2021/06/29 12:44:33;;;;;;;39.92;3.55;;;;;;;;;;5075307;28;20078;-51
2021/06/29 12:46:59;;;;;;;5.90;1.92;;;;;;;;;;5075424;28;20029;-51
2021/06/29 12:49:27;;;;;;;2.38;1.27;;;;;;;;;;5075492;28;20024;-51
2021/06/29 12:51:56;;;;;;;18.70;2.03;;;;;;;;;;5074339;28;20024;-52
2021/06/29 12:54:24;;;;;;;11.85;2.53;;;;;;;;;;5075590;28;20150;-52
2021/06/29 12:56:51;;;;;;;29.67;2.00;;;;;;;;;;5075241;28;20024;-51
2021/06/29 12:59:21;;;;;;;5.65;1.95;;;;;;;;;;5075432;28;20035;-52
2021/06/29 13:01:48;;;;;;;;;;;;;;;;;;5074344;28;20044;-51
2021/06/29 13:04:16;;;;;;;6.32;1.67;;;;;;;;;;5073414;28;19904;-52
2021/06/29 13:06:43;;;;;;;28.05;2.35;;;;;;;;;;5074701;28;20448;-52
2021/06/29 13:09:09;;;;;;;26.85;2.17;;;;;;;;;;5075218;28;20074;-51
2021/06/29 13:11:36;;;;;;;90.03;3.40;;;;;;;;;;5074018;28;20390;-51
2021/06/29 13:14:04;;;;;;;6.65;1.35;;;;;;;;;;5074741;28;20025;-51
2021/06/29 13:16:30;;;;;;;16.95;1.60;;;;;;;;;;5074960;28;20056;-51
2021/06/29 13:18:57;;;;;;;3.33;1.25;;;;;;;;;;5075060;28;20074;-52
2021/06/29 13:21:31;;;;;;;12.77;2.80;;;;;;;;;;5073644;28;20078;-52
2021/06/29 13:24:01;;;;;;;7.68;2.47;;;;;;;;;;5074755;28;20031;-52
2021/06/29 13:26:28;;;;;;;1.38;1.27;;;;;;;;;;5074938;28;20395;-52
2021/06/29 13:28:55;;;;;;;8.15;2.47;;;;;;;;;;5074256;28;20028;-52
2021/06/29 13:31:21;;;;;;;3.72;1.25;;;;;;;;;;5073883;28;20029;-52
2021/06/29 13:33:47;;;;;;;4.68;1.38;;;;;;;;;;5074140;28;20470;-52
2021/06/29 13:36:13;;;;;;;2.10;1.35;;;;;;;;;;5074905;28;20017;-52
2021/06/29 13:38:39;;;;;;;1.60;1.50;;;;;;;;;;5074237;28;20025;-51
2021/06/29 13:41:06;;;;;;;6.72;1.00;;;;;;;;;;5073520;28;20495;-51
2021/06/29 13:43:35;;;;;;;1.85;0.75;;;;;;;;;;5074517;28;20032;-51
2021/06/29 13:46:20;;;;;;;4.15;0.70;;;;;;;;;;5074180;28;20069;-51
2021/06/29 13:48:46;;;;;;;0.45;0.40;;;;;;;;;;5073877;28;20020;-51
2021/06/29 13:51:25;;;;;;;0.40;0.40;;;;;;;;;;5073300;28;20023;-51
2021/06/29 13:53:51;;;;;;;2.63;0.90;;;;;;;;;;5073832;28;20031;-51
2021/06/29 13:56:17;;;;;;;3.10;0.80;;;;;;;;;;5073896;28;20436;-51
2021/06/29 13:58:50;;;;;;;1.73;1.05;;;;;;;;;;5073664;28;20081;-51
2021/06/29 14:01:24;;;;;;;5.15;1.10;;;;;;;;;;5073206;28;20459;-50
2021/06/29 14:03:59;;;;;;;2.10;0.70;;;;;;;;;;5073831;28;20027;-52
2021/06/29 14:06:25;;;;;;;8.02;1.20;;;;;;;;;;5074103;28;20029;-51
2021/06/29 14:09:05;;;;;;;6.72;0.70;;;;;;;;;;5073918;28;20017;-51
2021/06/29 14:11:35;;;;;;;0.57;0.57;;;;;;;;;;5073134;28;20515;-51
2021/06/29 14:14:01;;;;;;;1.15;0.70;;;;;;;;;;5072725;28;20029;-51
2021/06/29 14:16:27;;;;;;;2.83;1.20;;;;;;;;;;5073567;28;20463;-51
2021/06/29 14:18:54;;;;;;;3.85;0.93;;;;;;;;;;5073283;28;20024;-52
2021/06/29 14:21:21;;;;;;;2.30;0.50;;;;;;;;;;5073009;28;20032;-51
2021/06/29 14:23:48;;;;;;;0.70;0.60;;;;;;;;;;5073323;28;20024;-51
2021/06/29 14:26:14;;;;;;;0.98;0.88;;;;;;;;;;5073736;28;20035;-51
2021/06/29 14:28:41;;;;;;;2.65;1.00;;;;;;;;;;5073402;28;20345;-51
2021/06/29 14:31:07;;;;;;;1.73;0.68;;;;;;;;;;5072665;28;20028;-51
2021/06/29 14:33:36;;;;;;;6.03;1.17;;;;;;;;;;5073374;28;20347;-51
2021/06/29 14:36:02;;;;;;;0.83;0.60;;;;;;;;;;5073078;28;20055;-51
2021/06/29 14:38:28;;;;;;;0.65;0.65;;;;;;;;;;5073077;28;20332;-51
2021/06/29 14:40:55;;;;;;;2.63;0.80;;;;;;;;;;5072089;28;20436;-51
2021/06/29 14:43:21;;;;;;;0.70;0.60;;;;;;;;;;5073321;28;20439;-51
2021/06/29 14:45:47;;;;;;;2.50;0.60;;;;;;;;;;5071791;28;20028;-51